Time;durP1;ratioP1;P1;durP2;ratioP2;P2;SDS_P1;SDS_P2;PMS_P1;PMS_P2;Temp;Humidity;BMP_temperature;BMP_pressure;BME280_temperature;BME280_humidity;BME280_pressure;Samples;Min_cycle;Max_cycle;Signal;HPM_P1;HPM_P2
2023/06/13 00:02:12;;;;;;;5.03;4.13;;;;;;;-146.58;100.00;69501.63;5033520;28;20071;-67
2023/06/13 00:04:43;;;;;;;4.88;3.65;;;;;;;-146.58;100.00;69501.63;5032239;28;20033;-67
2023/06/13 00:07:09;;;;;;;7.03;4.90;;;;;;;-146.58;100.00;69501.63;5033140;28;20060;-67
2023/06/13 00:09:35;;;;;;;6.97;4.88;;;;;;;-146.58;100.00;69501.63;5031874;28;20068;-67
2023/06/13 00:12:00;;;;;;;9.60;4.63;;;;;;;-146.58;100.00;69501.63;5032633;28;20034;-67
2023/06/13 00:14:26;;;;;;;6.00;3.83;;;;;;;-146.58;100.00;69501.63;5031443;28;20056;-66
2023/06/13 00:16:51;;;;;;;7.63;4.55;;;;;;;-146.58;100.00;69501.63;5033125;28;20036;-66
2023/06/13 00:19:18;;;;;;;6.45;3.65;;;;;;;-146.58;100.00;69501.63;5031887;28;20041;-66
2023/06/13 00:21:47;;;;;;;6.85;3.90;;;;;;;-146.58;100.00;69501.63;5032861;28;20055;-66
2023/06/13 00:24:13;;;;;;;9.25;5.35;;;;;;;-146.58;100.00;69501.63;5031926;28;20520;-66
2023/06/13 00:26:38;;;;;;;8.10;4.38;;;;;;;-146.58;100.00;69501.63;5032800;28;20136;-66
2023/06/13 00:29:03;;;;;;;5.70;4.43;;;;;;;-146.58;100.00;69501.63;5031396;28;20038;-66
2023/06/13 00:31:29;;;;;;;12.50;4.40;;;;;;;-146.58;100.00;69501.63;5032867;28;20032;-66
2023/06/13 00:33:55;;;;;;;7.72;3.90;;;;;;;-146.58;100.00;69501.63;5031475;28;20053;-66
2023/06/13 00:36:21;;;;;;;6.15;3.90;;;;;;;-146.58;100.00;69501.63;5032959;28;20032;-66
2023/06/13 00:38:49;;;;;;;6.43;4.95;;;;;;;-146.58;100.00;69501.63;5030789;28;20547;-66
2023/06/13 00:41:15;;;;;;;9.43;6.13;;;;;;;-146.58;100.00;69501.63;5032967;28;20025;-65
2023/06/13 00:43:40;;;;;;;6.43;4.45;;;;;;;-146.58;100.00;69501.63;5031142;28;20559;-65
2023/06/13 00:46:05;;;;;;;6.43;4.13;;;;;;;-146.58;100.00;69501.63;5032412;28;20384;-64
2023/06/13 00:48:33;;;;;;;5.45;4.55;;;;;;;-146.58;100.00;69501.63;5031168;28;20038;-65
2023/06/13 00:50:59;;;;;;;11.77;5.43;;;;;;;-146.58;100.00;69501.63;5032246;28;20192;-64
2023/06/13 00:53:29;;;;;;;7.80;5.55;;;;;;;-146.58;100.00;69501.63;5030886;28;20038;-65
2023/06/13 00:55:55;;;;;;;4.30;3.55;;;;;;;-146.58;100.00;69501.63;5031406;28;20083;-65
2023/06/13 00:58:20;;;;;;;7.35;4.28;;;;;;;-146.58;100.00;69501.63;5031330;28;20052;-64
2023/06/13 01:00:46;;;;;;;7.90;4.45;;;;;;;-146.58;100.00;69501.63;5032204;28;20025;-64
2023/06/13 01:03:15;;;;;;;7.15;3.75;;;;;;;-146.58;100.00;69501.63;5030913;28;20171;-64
2023/06/13 01:05:41;;;;;;;7.93;4.90;;;;;;;-146.58;100.00;69501.63;5031811;28;20104;-65
2023/06/13 01:08:09;;;;;;;6.82;4.53;;;;;;;-146.58;100.00;69501.63;5030430;28;20028;-64
2023/06/13 01:10:36;;;;;;;4.13;3.67;;;;;;;-146.58;100.00;69501.63;5032021;28;20033;-64
2023/06/13 01:13:24;;;;;;;8.55;4.60;;;;;;;-146.58;100.00;69501.63;5031954;28;20029;-65
2023/06/13 01:15:54;;;;;;;4.57;4.05;;;;;;;-146.58;100.00;69501.63;5010611;28;20061;-65
2023/06/13 01:18:24;;;;;;;7.35;5.55;;;;;;;-146.58;100.00;69501.63;5011538;28;20049;-64
2023/06/13 01:20:57;;;;;;;7.38;4.75;;;;;;;-146.58;100.00;69501.63;5012253;28;20022;-64
2023/06/13 01:23:36;;;;;;;5.93;4.53;;;;;;;-146.58;100.00;69501.63;5010925;28;20039;-64
2023/06/13 01:26:07;;;;;;;10.63;6.03;;;;;;;-146.58;100.00;69501.63;5011837;28;20477;-64
2023/06/13 01:28:33;;;;;;;5.15;4.43;;;;;;;-146.58;100.00;69501.63;5010305;28;20910;-64
2023/06/13 01:31:06;;;;;;;6.28;5.63;;;;;;;-146.58;100.00;69501.63;5011949;28;20042;-64
2023/06/13 01:33:33;;;;;;;9.20;5.18;;;;;;;-146.58;100.00;69501.63;5010848;28;20052;-64
2023/06/13 01:35:58;;;;;;;5.60;4.60;;;;;;;-146.58;100.00;69501.63;5011335;28;20513;-65
2023/06/13 01:38:24;;;;;;;10.15;5.18;;;;;;;-146.58;100.00;69501.63;5010760;28;20125;-65
2023/06/13 01:40:49;;;;;;;8.48;4.75;;;;;;;-146.58;100.00;69501.63;5011655;28;20057;-65
2023/06/13 01:43:15;;;;;;;8.88;6.50;;;;;;;-146.58;100.00;69501.63;5009882;28;20030;-64
2023/06/13 01:45:40;;;;;;;7.85;4.55;;;;;;;-146.58;100.00;69501.63;5011595;28;20020;-65
2023/06/13 01:48:22;;;;;;;5.15;4.45;;;;;;;-146.58;100.00;69501.63;5010587;28;20110;-64
2023/06/13 01:50:55;;;;;;;5.30;4.50;;;;;;;-146.58;100.00;69501.63;5011358;28;20033;-67
2023/06/13 01:53:23;;;;;;;5.00;4.32;;;;;;;-146.58;100.00;69501.63;5010017;28;20036;-66
2023/06/13 01:55:55;;;;;;;7.93;4.90;;;;;;;-146.58;100.00;69501.63;5011485;28;20029;-67
2023/06/13 01:58:26;;;;;;;5.47;4.00;;;;;;;-146.58;100.00;69501.63;5010357;28;20183;-66
2023/06/13 02:00:55;;;;;;;12.20;5.68;;;;;;;-146.58;100.00;69501.63;5011280;28;20075;-67
2023/06/13 02:03:22;;;;;;;7.65;5.05;;;;;;;-146.58;100.00;69501.63;5010017;28;20049;-67
2023/06/13 02:05:47;;;;;;;14.75;5.95;;;;;;;-146.58;100.00;69501.63;5010959;28;20040;-67
2023/06/13 02:08:13;;;;;;;5.40;4.90;;;;;;;-146.58;100.00;69501.63;5009857;28;20026;-66
2023/06/13 02:10:38;;;;;;;6.97;4.78;;;;;;;-146.58;100.00;69501.63;5011354;28;20026;-66
2023/06/13 02:13:05;;;;;;;7.03;5.05;;;;;;;-146.58;100.00;69501.63;5009608;28;20030;-66
2023/06/13 02:15:30;;;;;;;9.63;4.78;;;;;;;-146.58;100.00;69501.63;5011686;28;20025;-67
2023/06/13 02:17:56;;;;;;;8.52;4.97;;;;;;;-146.58;100.00;69501.63;5011163;28;20041;-67
2023/06/13 02:20:21;;;;;;;8.20;4.85;;;;;;;-146.58;100.00;69501.63;5009466;28;20053;-67
2023/06/13 02:22:46;;;;;;;12.30;5.43;;;;;;;-146.58;100.00;69501.63;5010796;28;20033;-67
2023/06/13 02:25:12;;;;;;;8.43;5.82;;;;;;;-146.58;100.00;69501.63;5009879;28;20046;-67
2023/06/13 02:27:38;;;;;;;6.45;5.10;;;;;;;-146.58;100.00;69501.63;5010897;28;20075;-66
2023/06/13 02:30:04;;;;;;;10.80;5.15;;;;;;;-146.58;100.00;69501.63;5009399;28;20046;-67
2023/06/13 02:32:29;;;;;;;6.32;5.70;;;;;;;-146.58;100.00;69501.63;5011210;28;20085;-67
2023/06/13 02:34:55;;;;;;;6.18;4.68;;;;;;;-146.58;100.00;69501.63;5009195;28;20049;-66
2023/06/13 02:37:20;;;;;;;7.07;5.20;;;;;;;-146.58;100.00;69501.63;5010973;28;20026;-66
2023/06/13 02:39:45;;;;;;;8.23;4.28;;;;;;;-146.58;100.00;69501.63;5008681;28;20034;-67
2023/06/13 02:42:11;;;;;;;4.95;4.45;;;;;;;-146.58;100.00;69501.63;5010368;28;20033;-67
2023/06/13 02:44:36;;;;;;;5.88;5.25;;;;;;;-146.58;100.00;69501.63;5009644;28;20042;-68
2023/06/13 02:47:02;;;;;;;5.65;4.20;;;;;;;-146.58;100.00;69501.63;5010871;28;20508;-68
2023/06/13 02:49:27;;;;;;;9.50;5.55;;;;;;;-146.58;100.00;69501.63;5009421;28;20049;-68
2023/06/13 02:51:52;;;;;;;6.75;6.05;;;;;;;-146.58;100.00;69501.63;5010239;28;20022;-68
2023/06/13 02:54:18;;;;;;;9.35;5.22;;;;;;;-146.58;100.00;69501.63;5009473;28;20477;-68
2023/06/13 02:56:43;;;;;;;5.85;5.22;;;;;;;-146.58;100.00;69501.63;5010818;28;20053;-68
2023/06/13 02:59:08;;;;;;;5.93;4.30;;;;;;;-146.58;100.00;69501.63;5009277;28;20042;-65
2023/06/13 03:01:34;;;;;;;7.63;5.20;;;;;;;-146.58;100.00;69501.63;5010569;28;20084;-66
2023/06/13 03:04:00;;;;;;;7.35;4.45;;;;;;;-146.58;100.00;69501.63;5009201;28;20052;-66
2023/06/13 03:06:26;;;;;;;13.43;5.45;;;;;;;-146.58;100.00;69501.63;5010525;28;20038;-66
2023/06/13 03:08:52;;;;;;;12.52;7.15;;;;;;;-146.58;100.00;69501.63;5009198;28;20048;-66
2023/06/13 03:11:18;;;;;;;5.18;4.70;;;;;;;-146.58;100.00;69501.63;5011173;28;20026;-66
2023/06/13 03:13:43;;;;;;;12.05;5.38;;;;;;;-146.58;100.00;69501.63;5008658;28;20394;-66
2023/06/13 03:16:09;;;;;;;13.32;4.47;;;;;;;-146.58;100.00;69501.63;5010557;28;20584;-66
2023/06/13 03:18:35;;;;;;;7.78;5.15;;;;;;;-146.58;100.00;69501.63;5011340;28;20038;-66
2023/06/13 03:21:01;;;;;;;5.45;4.85;;;;;;;-146.58;100.00;69501.63;5013717;28;20041;-66
2023/06/13 03:23:26;;;;;;;6.57;5.30;;;;;;;-146.58;100.00;69501.63;5012589;28;20497;-66
2023/06/13 03:25:51;;;;;;;7.47;5.40;;;;;;;-146.58;100.00;69501.63;5014275;28;20030;-66
2023/06/13 03:28:17;;;;;;;5.40;4.15;;;;;;;-146.58;100.00;69501.63;5012671;28;20026;-66
2023/06/13 03:30:42;;;;;;;7.90;5.20;;;;;;;-146.58;100.00;69501.63;5014208;28;20021;-66
2023/06/13 03:33:09;;;;;;;8.73;5.78;;;;;;;-146.58;100.00;69501.63;5012987;28;20042;-66
2023/06/13 03:35:35;;;;;;;8.80;5.20;;;;;;;-146.58;100.00;69501.63;5014146;28;20022;-66
2023/06/13 03:38:00;;;;;;;10.93;4.43;;;;;;;-146.58;100.00;69501.63;5013945;28;20174;-66
2023/06/13 03:40:25;;;;;;;8.95;5.35;;;;;;;-146.58;100.00;69501.63;5012794;28;20053;-66
2023/06/13 03:42:51;;;;;;;11.02;4.78;;;;;;;-146.58;100.00;69501.63;5013923;28;20030;-65
2023/06/13 03:45:17;;;;;;;11.38;6.43;;;;;;;-146.58;100.00;69501.63;5012771;28;20042;-65
2023/06/13 03:47:42;;;;;;;8.18;4.90;;;;;;;-146.58;100.00;69501.63;5013998;28;20022;-65
2023/06/13 03:50:08;;;;;;;9.27;4.82;;;;;;;-146.58;100.00;69501.63;5012202;28;20099;-65
2023/06/13 03:52:33;;;;;;;13.85;6.93;;;;;;;-146.58;100.00;69501.63;5013826;28;20468;-65
2023/06/13 03:54:59;;;;;;;5.35;4.70;;;;;;;-146.58;100.00;69501.63;5012345;28;20058;-65
2023/06/13 03:57:24;;;;;;;5.10;4.63;;;;;;;-146.58;100.00;69501.63;5013692;28;20022;-65
2023/06/13 03:59:51;;;;;;;9.60;5.38;;;;;;;-146.58;100.00;69501.63;5012085;28;20414;-66
2023/06/13 04:02:19;;;;;;;9.38;6.15;;;;;;;-146.58;100.00;69501.63;5013742;28;20029;-65
2023/06/13 04:04:46;;;;;;;7.35;5.93;;;;;;;-146.58;100.00;69501.63;5011852;28;20066;-65
2023/06/13 04:07:11;;;;;;;9.80;5.22;;;;;;;-146.58;100.00;69501.63;5013620;28;20034;-71
2023/06/13 04:09:37;;;;;;;7.53;4.85;;;;;;;-146.58;100.00;69501.63;5011604;28;20524;-67
2023/06/13 04:12:02;;;;;;;7.82;4.95;;;;;;;-146.58;100.00;69501.63;5012743;28;20034;-68
2023/06/13 04:14:28;;;;;;;6.78;4.72;;;;;;;-146.58;100.00;69501.63;5012207;28;20038;-66
2023/06/13 04:16:53;;;;;;;7.15;5.32;;;;;;;-146.58;100.00;69501.63;5013095;28;20018;-67
2023/06/13 04:19:19;;;;;;;7.50;6.00;;;;;;;-146.58;100.00;69501.63;5011362;28;20408;-67
2023/06/13 04:21:46;;;;;;;12.82;5.30;;;;;;;-146.58;100.00;69501.63;5012984;28;20049;-66
2023/06/13 04:24:14;;;;;;;11.85;5.78;;;;;;;-146.58;100.00;69501.63;5011558;28;20420;-66
2023/06/13 04:26:41;;;;;;;6.10;5.43;;;;;;;-146.58;100.00;69501.63;5012920;28;20075;-67
2023/06/13 04:29:07;;;;;;;7.07;5.40;;;;;;;-146.58;100.00;69501.63;5011231;28;20088;-66
2023/06/13 04:31:35;;;;;;;13.10;5.43;;;;;;;-146.58;100.00;69501.63;5012932;28;20033;-67
2023/06/13 04:34:03;;;;;;;10.02;5.40;;;;;;;-146.58;100.00;69501.63;5010975;28;20038;-66
2023/06/13 04:36:29;;;;;;;;;;;;;;;-146.58;100.00;69501.63;5013614;28;20379;-66
2023/06/13 04:38:54;;;;;;;7.97;5.43;;;;;;;-146.58;100.00;69501.63;5011468;28;19921;-66
2023/06/13 04:41:19;;;;;;;10.02;5.88;;;;;;;-146.58;100.00;69501.63;5012800;28;20481;-67
2023/06/13 04:43:45;;;;;;;7.32;4.90;;;;;;;-146.58;100.00;69501.63;5011367;28;20442;-67
2023/06/13 04:46:10;;;;;;;8.73;5.70;;;;;;;-146.58;100.00;69501.63;5013027;28;20025;-67
2023/06/13 04:48:37;;;;;;;7.43;5.05;;;;;;;-146.58;100.00;69501.63;5011108;28;20038;-67
2023/06/13 04:51:03;;;;;;;12.20;6.47;;;;;;;-146.58;100.00;69501.63;5012957;28;20029;-66
2023/06/13 04:53:29;;;;;;;11.55;6.05;;;;;;;-146.58;100.00;69501.63;5011423;28;20034;-66
2023/06/13 04:55:55;;;;;;;6.90;5.07;;;;;;;-146.58;100.00;69501.63;5012458;28;20038;-67
2023/06/13 04:58:23;;;;;;;6.35;5.32;;;;;;;-146.58;100.00;69501.63;5011656;28;20026;-68
2023/06/13 05:00:50;;;;;;;10.98;5.15;;;;;;;-146.58;100.00;69501.63;5012805;28;20029;-67
2023/06/13 05:03:16;;;;;;;7.50;5.28;;;;;;;-146.58;100.00;69501.63;5010690;28;20100;-67
2023/06/13 05:05:43;;;;;;;5.55;5.10;;;;;;;-146.58;100.00;69501.63;5012703;28;20037;-67
2023/06/13 05:08:09;;;;;;;10.10;6.13;;;;;;;-146.58;100.00;69501.63;5011037;28;20436;-68
2023/06/13 05:10:35;;;;;;;10.43;5.43;;;;;;;-146.58;100.00;69501.63;5012204;28;20389;-67
2023/06/13 05:13:01;;;;;;;7.15;5.22;;;;;;;-146.58;100.00;69501.63;5012407;28;20030;-68
2023/06/13 05:15:26;;;;;;;6.00;5.40;;;;;;;-146.58;100.00;69501.63;5010891;28;20386;-67
2023/06/13 05:17:54;;;;;;;7.07;5.35;;;;;;;-146.58;100.00;69501.63;5011781;28;20025;-67
2023/06/13 05:20:22;;;;;;;;;;;;;;;-146.58;100.00;69501.63;5011477;28;20152;-67
2023/06/13 05:22:49;;;;;;;16.73;6.45;;;;;;;-146.58;100.00;69501.63;5012132;28;20019;-68
2023/06/13 05:25:15;;;;;;;8.27;5.88;;;;;;;-146.58;100.00;69501.63;5010527;28;20520;-67
2023/06/13 05:27:40;;;;;;;7.00;5.00;;;;;;;-146.58;100.00;69501.63;5012358;28;20029;-68
2023/06/13 05:30:09;;;;;;;12.48;5.38;;;;;;;-146.58;100.00;69501.63;5010544;28;20080;-68
2023/06/13 05:32:34;;;;;;;11.75;6.28;;;;;;;-146.58;100.00;69501.63;5011750;28;20092;-67
2023/06/13 05:35:00;;;;;;;10.68;6.47;;;;;;;-146.58;100.00;69501.63;5010452;28;20520;-65
2023/06/13 05:37:25;;;;;;;8.48;6.30;;;;;;;-146.58;100.00;69501.63;5011840;28;20361;-66
2023/06/13 05:39:51;;;;;;;6.47;5.40;;;;;;;-146.58;100.00;69501.63;5009562;28;20058;-65
2023/06/13 05:42:16;;;;;;;6.63;5.32;;;;;;;-146.58;100.00;69501.63;5011428;28;20034;-66
2023/06/13 05:44:41;;;;;;;6.80;4.95;;;;;;;-146.58;100.00;69501.63;5010252;28;20046;-66
2023/06/13 05:47:07;;;;;;;7.78;5.80;;;;;;;-146.58;100.00;69501.63;5011977;28;20026;-65
2023/06/13 05:49:33;;;;;;;12.23;5.80;;;;;;;-146.58;100.00;69501.63;5010144;28;20052;-66
2023/06/13 05:51:58;;;;;;;6.43;5.38;;;;;;;-146.58;100.00;69501.63;5011350;28;20034;-65
2023/06/13 05:54:23;;;;;;;8.10;5.20;;;;;;;-146.58;100.00;69501.63;5009945;28;20496;-66
2023/06/13 05:56:49;;;;;;;6.25;5.03;;;;;;;-146.58;100.00;69501.63;5008629;28;20440;-65
2023/06/13 05:59:14;;;;;;;11.30;6.47;;;;;;;-146.58;100.00;69501.63;5009333;28;20060;-66
2023/06/13 06:01:43;;;;;;;11.23;6.28;;;;;;;-146.58;100.00;69501.63;5010956;28;20116;-66
2023/06/13 06:04:09;;;;;;;15.43;6.85;;;;;;;-146.58;100.00;69501.63;5009486;28;20045;-65
2023/06/13 06:06:34;;;;;;;8.07;5.03;;;;;;;-146.58;100.00;69501.63;5011578;28;20030;-66
2023/06/13 06:09:00;;;;;;;6.32;4.80;;;;;;;-146.58;100.00;69501.63;5009752;28;20033;-70
2023/06/13 06:11:25;;;;;;;8.07;4.53;;;;;;;-146.58;100.00;69501.63;5011045;28;20026;-65
2023/06/13 06:13:51;;;;;;;9.52;5.80;;;;;;;-146.58;100.00;69501.63;5009624;28;20038;-65
2023/06/13 06:16:16;;;;;;;5.70;4.82;;;;;;;-146.58;100.00;69501.63;5011287;28;20025;-65
2023/06/13 06:18:41;;;;;;;6.97;5.60;;;;;;;-146.58;100.00;69501.63;5014361;28;20037;-65
2023/06/13 06:21:07;;;;;;;5.72;4.63;;;;;;;-146.58;100.00;69501.63;5031358;28;20027;-65
2023/06/13 06:23:32;;;;;;;11.15;4.65;;;;;;;-146.58;100.00;69501.63;5029655;28;20036;-65
2023/06/13 06:25:57;;;;;;;8.20;4.13;;;;;;;-146.58;100.00;69501.63;5030348;28;20788;-65
2023/06/13 06:28:23;;;;;;;9.02;5.55;;;;;;;-146.58;100.00;69501.63;5029553;28;20025;-66
2023/06/13 06:30:48;;;;;;;9.77;4.22;;;;;;;-146.58;100.00;69501.63;5030535;28;20022;-65
2023/06/13 06:33:14;;;;;;;6.65;4.15;;;;;;;-146.58;100.00;69501.63;5029182;28;20061;-66
2023/06/13 06:35:39;;;;;;;7.28;4.43;;;;;;;20.84;100.00;166021.97;5030652;28;20029;-65
2023/06/13 06:38:04;;;;;;;9.25;5.47;;;;;;;21.02;100.00;166068.16;5030443;28;20021;-63
2023/06/13 06:40:30;;;;;;;6.88;6.22;;;;;;;21.14;100.00;166100.72;5030459;28;20017;-65
2023/06/13 06:42:55;;;;;;;9.55;4.32;;;;;;;21.27;100.00;166134.69;5030635;28;20021;-66
2023/06/13 06:45:21;;;;;;;8.48;5.15;;;;;;;21.43;100.00;166176.78;5029164;28;20095;-65
2023/06/13 06:47:47;;;;;;;7.53;4.20;;;;;;;21.54;100.00;166206.69;5030235;28;20026;-66
2023/06/13 06:50:12;;;;;;;6.57;4.20;;;;;;;21.77;100.00;166266.50;5029162;28;20440;-65
2023/06/13 06:52:37;;;;;;;7.05;5.22;;;;;;;21.85;100.00;166286.84;5030717;28;20029;-65
2023/06/13 06:55:03;;;;;;;6.90;4.55;;;;;;;22.01;100.00;166328.94;5032235;28;20073;-66
2023/06/13 06:57:28;;;;;;;9.18;4.28;;;;;;;22.20;100.00;166379.22;5034841;28;20025;-65
2023/06/13 06:59:54;;;;;;;7.68;4.78;;;;;;;-146.58;100.00;69501.63;5032994;28;20037;-66
2023/06/13 07:02:19;;;;;;;4.35;3.90;;;;;;;-146.58;100.00;69501.63;5034306;28;20028;-65
2023/06/13 07:04:45;;;;;;;6.20;4.72;;;;;;;22.20;100.00;166379.22;5033140;28;20120;-66
2023/06/13 07:07:11;;;;;;;7.60;4.10;;;;;;;22.70;100.00;166511.09;5034952;28;20472;-66
2023/06/13 07:09:36;;;;;;;7.40;4.05;;;;;;;22.85;100.00;166549.13;5032644;28;20041;-66
2023/06/13 07:12:02;;;;;;;6.20;3.88;;;;;;;22.95;100.00;166576.34;5034348;28;20083;-65
2023/06/13 07:14:27;;;;;;;7.13;4.45;;;;;;;23.11;100.00;166619.84;5032998;28;20038;-65
2023/06/13 07:16:55;;;;;;;16.38;4.43;;;;;;;-146.58;100.00;69501.63;5034105;28;20030;-66
2023/06/13 07:19:21;;;;;;;9.00;4.45;;;;;;;-146.58;100.00;69501.63;5033087;28;20091;-66
2023/06/13 07:21:47;;;;;;;13.35;4.78;;;;;;;-146.58;100.00;69501.63;5034358;28;20025;-66
2023/06/13 07:24:12;;;;;;;8.73;3.92;;;;;;;-146.58;100.00;69501.63;5032526;28;20037;-66
2023/06/13 07:26:37;;;;;;;5.82;3.90;;;;;;;-146.58;100.00;69501.63;5034354;28;20033;-66
2023/06/13 07:29:03;;;;;;;6.18;3.90;;;;;;;-146.58;100.00;69501.63;5032615;28;20041;-66
2023/06/13 07:31:30;;;;;;;5.05;4.28;;;;;;;-146.58;100.00;69501.63;5033559;28;20495;-66
2023/06/13 07:33:55;;;;;;;6.50;3.97;;;;;;;-146.58;100.00;69501.63;5032574;28;20146;-66
2023/06/13 07:36:21;;;;;;;14.77;6.53;;;;;;;-146.58;100.00;69501.63;5034150;28;20389;-66
2023/06/13 07:38:46;;;;;;;6.68;4.25;;;;;;;-146.58;100.00;69501.63;5032242;28;20034;-65
2023/06/13 07:41:11;;;;;;;10.57;5.55;;;;;;;-146.58;100.00;69501.63;5034046;28;20025;-66
2023/06/13 07:43:37;;;;;;;7.55;3.90;;;;;;;-146.58;100.00;69501.63;5032423;28;20416;-66
2023/06/13 07:46:02;;;;;;;6.18;4.50;;;;;;;-146.58;100.00;69501.63;5033097;28;20033;-65
2023/06/13 07:48:27;;;;;;;6.40;4.13;;;;;;;-146.58;100.00;69501.63;5032625;28;20087;-65
2023/06/13 07:50:53;;;;;;;7.22;4.32;;;;;;;-146.58;100.00;69501.63;5033466;28;20362;-64
2023/06/13 07:53:18;;;;;;;14.00;4.35;;;;;;;-146.58;100.00;69501.63;5032091;28;20022;-64
2023/06/13 07:55:46;;;;;;;6.45;4.03;;;;;;;-146.58;100.00;69501.63;5033509;28;20026;-64
2023/06/13 07:58:13;;;;;;;9.95;4.78;;;;;;;-146.58;100.00;69501.63;5032413;28;20025;-64
2023/06/13 08:00:38;;;;;;;9.65;3.90;;;;;;;-146.58;100.00;69501.63;5033666;28;20104;-64
2023/06/13 08:03:03;;;;;;;20.27;5.47;;;;;;;-146.58;100.00;69501.63;5033497;28;20527;-64
2023/06/13 08:05:29;;;;;;;8.82;4.25;;;;;;;-146.58;100.00;69501.63;5031809;28;20037;-64
2023/06/13 08:07:55;;;;;;;13.27;4.20;;;;;;;-146.58;100.00;69501.63;5033096;28;20080;-64
2023/06/13 08:10:21;;;;;;;9.52;5.22;;;;;;;-146.58;100.00;69501.63;5031577;28;20060;-64
2023/06/13 08:12:46;;;;;;;9.48;5.03;;;;;;;-146.58;100.00;69501.63;5033140;28;20026;-64
2023/06/13 08:15:11;;;;;;;13.20;5.97;;;;;;;-146.58;100.00;69501.63;5031895;28;20076;-65
2023/06/13 08:17:37;;;;;;;5.88;4.57;;;;;;;-146.58;100.00;69501.63;5033105;28;20056;-64
2023/06/13 08:20:04;;;;;;;10.70;4.55;;;;;;;-146.58;100.00;69501.63;5031233;28;20099;-65
2023/06/13 08:22:29;;;;;;;18.95;4.40;;;;;;;-146.58;100.00;69501.63;5033604;28;20025;-65
2023/06/13 08:24:55;;;;;;;8.13;4.80;;;;;;;-146.58;100.00;69501.63;5031243;28;20041;-64
2023/06/13 08:27:21;;;;;;;10.23;4.50;;;;;;;-146.58;100.00;69501.63;5033480;28;20025;-64
2023/06/13 08:29:46;;;;;;;12.98;4.45;;;;;;;-146.58;100.00;69501.63;5031379;28;20041;-64
2023/06/13 08:32:11;;;;;;;7.18;4.50;;;;;;;-146.58;100.00;69501.63;5032936;28;20017;-65
2023/06/13 08:34:37;;;;;;;5.25;3.83;;;;;;;-146.58;100.00;69501.63;5031299;28;20050;-65
2023/06/13 08:37:03;;;;;;;4.38;3.97;;;;;;;-146.58;100.00;69501.63;5032671;28;20079;-65
2023/06/13 08:39:28;;;;;;;11.52;6.70;;;;;;;-146.58;100.00;69501.63;5030950;28;20061;-65
2023/06/13 08:41:55;;;;;;;6.88;3.28;;;;;;;-146.58;100.00;69501.63;5032528;28;20030;-64
2023/06/13 08:44:21;;;;;;;20.25;6.00;;;;;;;-146.58;100.00;69501.63;5031366;28;20048;-64
2023/06/13 08:46:47;;;;;;;10.30;4.25;;;;;;;26.64;92.95;167547.88;5032328;28;20045;-64
2023/06/13 08:49:12;;;;;;;4.57;3.33;;;;;;;26.60;90.80;167539.75;5031504;28;20095;-65
2023/06/13 08:51:38;;;;;;;12.98;4.75;;;;;;;26.80;91.23;167590.19;5032618;28;20037;-64
2023/06/13 08:54:05;;;;;;;13.38;4.05;;;;;;;27.12;90.94;167675.97;5030575;28;20046;-64
2023/06/13 08:56:42;;;;;;;4.67;3.40;;;;;;;27.19;88.86;167695.03;5032801;28;20045;-64
2023/06/13 08:59:14;;;;;;;8.48;4.40;;;;;;;27.44;88.45;167760.41;5031207;28;20056;-64
2023/06/13 09:01:41;;;;;;;7.13;3.88;;;;;;;27.61;90.26;167804.00;5032167;28;20025;-64
2023/06/13 09:04:08;;;;;;;8.35;4.28;;;;;;;27.82;88.88;167861.22;5030721;28;20045;-64
2023/06/13 09:06:37;;;;;;;9.20;4.53;;;;;;;27.53;78.91;167784.94;5032424;28;20452;-62
2023/06/13 09:09:03;;;;;;;6.35;4.18;;;;;;;27.06;75.64;167659.63;5030164;28;20045;-63
2023/06/13 09:11:29;;;;;;;11.20;4.60;;;;;;;26.68;74.09;167558.81;5032329;28;20029;-63
2023/06/13 09:13:55;;;;;;;6.28;5.18;;;;;;;26.91;78.88;167621.50;5030676;28;20041;-63
2023/06/13 09:16:21;;;;;;;6.25;3.92;;;;;;;27.01;79.53;167645.97;5031169;28;20468;-64
2023/06/13 09:18:49;;;;;;;13.80;4.82;;;;;;;27.13;77.88;167678.69;5030543;28;20049;-64
2023/06/13 09:21:15;;;;;;;5.57;4.90;;;;;;;27.21;78.08;167699.09;5032547;28;20026;-65
2023/06/13 09:23:40;;;;;;;3.70;3.28;;;;;;;27.50;76.76;167776.81;5029901;28;20530;-64
2023/06/13 09:26:08;;;;;;;5.05;4.07;;;;;;;27.68;75.98;167823.09;5032400;28;20036;-63
2023/06/13 09:28:40;;;;;;;5.55;3.78;;;;;;;27.79;76.64;167853.06;5030536;28;20617;-63
2023/06/13 09:31:10;;;;;;;4.28;3.88;;;;;;;27.72;72.98;167834.00;5031675;28;20053;-64
2023/06/13 09:33:36;;;;;;;4.65;3.60;;;;;;;27.76;78.34;167844.88;5030466;28;20496;-64
2023/06/13 09:36:04;;;;;;;6.40;4.53;;;;;;;27.88;75.83;167874.88;5031582;28;20595;-63
2023/06/13 09:38:34;;;;;;;4.38;3.80;;;;;;;27.66;75.20;167817.66;5030094;28;20033;-64
2023/06/13 09:41:02;;;;;;;6.07;3.85;;;;;;;27.86;76.64;167872.16;5031795;28;20502;-64
2023/06/13 09:43:28;;;;;;;4.93;4.43;;;;;;;27.58;72.93;167795.88;5030298;28;20038;-63
2023/06/13 09:45:53;;;;;;;5.80;4.03;;;;;;;27.35;74.21;167735.88;5031038;28;20022;-64
2023/06/13 09:48:19;;;;;;;9.00;4.95;;;;;;;27.30;75.63;167722.22;5030168;28;20029;-64
2023/06/13 09:50:45;;;;;;;24.48;5.57;;;;;;;27.13;73.20;167677.31;5031283;28;20056;-63
2023/06/13 09:53:10;;;;;;;8.50;4.05;;;;;;;26.81;73.25;167594.25;5029831;28;20037;-63
2023/06/13 09:55:36;;;;;;;12.18;4.28;;;;;;;26.68;75.08;167558.81;5031398;28;20485;-63
2023/06/13 09:58:02;;;;;;;5.78;4.10;;;;;;;26.71;74.71;167568.34;5031285;28;20396;-64
2023/06/13 10:00:28;;;;;;;7.85;4.57;;;;;;;27.08;74.22;167665.03;5029669;28;20454;-64
2023/06/13 10:02:54;;;;;;;6.60;4.43;;;;;;;27.44;75.45;167760.41;5030984;28;20045;-64
2023/06/13 10:05:20;;;;;;;7.65;4.22;;;;;;;27.73;78.18;167836.75;5029963;28;20030;-64
2023/06/13 10:07:46;;;;;;;9.07;4.85;;;;;;;27.96;77.62;167896.69;5029276;28;20071;-64
2023/06/13 10:10:11;;;;;;;5.10;3.17;;;;;;;28.06;79.75;167923.94;5027384;28;20045;-66
2023/06/13 10:12:44;;;;;;;6.68;4.30;;;;;;;27.98;74.57;167902.09;5030958;28;20025;-66
2023/06/13 10:15:14;;;;;;;6.70;4.57;;;;;;;28.07;75.79;167925.34;5029013;28;20072;-66
2023/06/13 10:17:42;;;;;;;11.07;4.18;;;;;;;28.37;75.36;168005.72;5029204;28;20033;-66
2023/06/13 10:20:11;;;;;;;17.08;4.60;;;;;;;28.50;74.99;168039.78;5029174;28;20041;-66
2023/06/13 10:22:38;;;;;;;9.02;4.72;;;;;;;28.76;74.70;168109.34;5030186;28;20028;-66
2023/06/13 10:25:07;;;;;;;5.53;4.57;;;;;;;28.80;72.83;168120.22;5028384;28;20111;-66
2023/06/13 10:27:36;;;;;;;7.90;4.38;;;;;;;28.89;73.42;168142.03;5030412;28;20044;-65
2023/06/13 10:30:20;;;;;;;6.40;3.63;;;;;;;29.10;74.23;168199.28;5027499;28;20045;-66
2023/06/13 10:33:11;;;;;;;7.30;3.97;;;;;;;29.30;74.80;168251.09;5030010;28;20021;-66
2023/06/13 10:35:51;;;;;;;6.05;4.97;;;;;;;28.95;74.04;168158.38;5027121;28;20594;-65
2023/06/13 10:38:37;;;;;;;13.27;3.70;;;;;;;29.03;73.77;168180.19;5027554;28;20436;-66
2023/06/13 10:41:33;;;;;;;9.85;4.60;;;;;;;28.38;70.90;168008.44;4999331;28;20075;-67
2023/06/13 10:44:04;;;;;;;10.55;5.63;;;;;;;28.45;71.70;168026.13;5022484;28;20779;-65
2023/06/13 10:46:30;;;;;;;11.07;4.35;;;;;;;28.17;70.88;167953.94;5003916;28;20104;-67
2023/06/13 10:48:57;;;;;;;5.43;4.43;;;;;;;28.15;70.54;167948.47;5015773;28;20042;-66
2023/06/13 10:51:25;;;;;;;4.53;4.10;;;;;;;28.16;69.80;167951.22;5029831;28;20025;-66
2023/06/13 10:54:03;;;;;;;7.93;4.18;;;;;;;28.42;70.74;168019.31;5028660;28;20481;-67
2023/06/13 10:56:31;;;;;;;7.78;4.60;;;;;;;28.60;71.34;168067.00;5030425;28;20033;-66
2023/06/13 10:59:05;;;;;;;5.72;4.72;;;;;;;28.86;72.15;168133.84;5028562;28;20394;-66
2023/06/13 11:01:33;;;;;;;5.88;4.50;;;;;;;28.80;73.80;168120.22;5030220;28;20037;-66
2023/06/13 11:04:10;;;;;;;6.68;4.28;;;;;;;29.20;74.05;168223.81;5028437;28;20064;-66
2023/06/13 11:06:36;;;;;;;;;;;;;;;-146.58;100.00;69501.63;5030504;28;20053;-66
2023/06/13 11:09:17;;;;;;;7.80;3.97;;;;;;;-146.58;100.00;69501.63;5028550;28;19955;-66
2023/06/13 11:11:57;;;;;;;13.13;4.57;;;;;;;-146.58;100.00;69501.63;5030295;28;20021;-66